sensor_id;sensor_type;location;lat;lon;timestamp;temperature;humidity
24103;DHT22;12278;53.058;9.028;2023-12-20T00:00:50;6.00;99.90
24103;DHT22;12278;53.058;9.028;2023-12-20T00:04:51;5.80;99.90
24103;DHT22;12278;53.058;9.028;2023-12-20T00:08:51;5.80;99.90
24103;DHT22;12278;53.058;9.028;2023-12-20T00:12:52;5.70;99.90
24103;DHT22;12278;53.058;9.028;2023-12-20T00:16:53;5.80;99.90
24103;DHT22;12278;53.058;9.028;2023-12-20T00:20:53;5.80;99.90
24103;DHT22;12278;53.058;9.028;2023-12-20T00:24:54;5.80;99.90
24103;DHT22;12278;53.058;9.028;2023-12-20T00:28:54;5.70;99.90
24103;DHT22;12278;53.058;9.028;2023-12-20T00:32:55;5.70;99.90
24103;DHT22;12278;53.058;9.028;2023-12-20T00:36:56;5.60;99.90
24103;DHT22;12278;53.058;9.028;2023-12-20T00:40:57;5.70;99.90
24103;DHT22;12278;53.058;9.028;2023-12-20T00:44:59;5.60;99.90
24103;DHT22;12278;53.058;9.028;2023-12-20T00:48:59;5.60;99.90
24103;DHT22;12278;53.058;9.028;2023-12-20T00:53:00;5.50;99.90
24103;DHT22;12278;53.058;9.028;2023-12-20T00:57:00;5.50;99.90
24103;DHT22;12278;53.058;9.028;2023-12-20T01:01:01;5.50;99.90
24103;DHT22;12278;53.058;9.028;2023-12-20T01:05:02;5.50;99.90
24103;DHT22;12278;53.058;9.028;2023-12-20T01:09:03;5.50;99.90
24103;DHT22;12278;53.058;9.028;2023-12-20T01:13:03;5.50;99.90
24103;DHT22;12278;53.058;9.028;2023-12-20T01:17:04;5.50;99.90
24103;DHT22;12278;53.058;9.028;2023-12-20T01:45:11;5.50;99.90
24103;DHT22;12278;53.058;9.028;2023-12-20T01:49:12;5.50;99.90
24103;DHT22;12278;53.058;9.028;2023-12-20T01:53:14;5.50;99.90
24103;DHT22;12278;53.058;9.028;2023-12-20T01:57:15;5.50;99.90
24103;DHT22;12278;53.058;9.028;2023-12-20T02:01:16;5.50;99.90
24103;DHT22;12278;53.058;9.028;2023-12-20T02:05:16;5.60;99.90
24103;DHT22;12278;53.058;9.028;2023-12-20T02:09:18;5.60;99.90
24103;DHT22;12278;53.058;9.028;2023-12-20T02:13:19;5.60;99.90
24103;DHT22;12278;53.058;9.028;2023-12-20T02:17:20;5.60;99.90
24103;DHT22;12278;53.058;9.028;2023-12-20T02:21:38;5.60;99.90
24103;DHT22;12278;53.058;9.028;2023-12-20T02:25:39;5.50;99.90
24103;DHT22;12278;53.058;9.028;2023-12-20T02:29:40;5.50;99.90
24103;DHT22;12278;53.058;9.028;2023-12-20T02:33:40;5.50;99.90
24103;DHT22;12278;53.058;9.028;2023-12-20T02:37:42;5.50;99.90
24103;DHT22;12278;53.058;9.028;2023-12-20T02:41:43;5.50;99.90
24103;DHT22;12278;53.058;9.028;2023-12-20T02:45:43;5.50;99.90
24103;DHT22;12278;53.058;9.028;2023-12-20T02:49:44;5.50;99.90
24103;DHT22;12278;53.058;9.028;2023-12-20T02:53:44;5.50;99.90
24103;DHT22;12278;53.058;9.028;2023-12-20T02:57:45;5.50;99.90
24103;DHT22;12278;53.058;9.028;2023-12-20T03:01:46;5.60;99.90
24103;DHT22;12278;53.058;9.028;2023-12-20T03:05:47;5.60;99.90
24103;DHT22;12278;53.058;9.028;2023-12-20T03:09:47;5.70;99.90
24103;DHT22;12278;53.058;9.028;2023-12-20T03:13:48;5.70;99.90
24103;DHT22;12278;53.058;9.028;2023-12-20T03:17:48;5.70;99.90
24103;DHT22;12278;53.058;9.028;2023-12-20T03:21:49;5.70;99.90
24103;DHT22;12278;53.058;9.028;2023-12-20T03:25:50;5.70;99.90
24103;DHT22;12278;53.058;9.028;2023-12-20T03:29:50;5.80;99.90
24103;DHT22;12278;53.058;9.028;2023-12-20T03:33:51;5.80;99.90
24103;DHT22;12278;53.058;9.028;2023-12-20T03:37:53;5.80;99.90
24103;DHT22;12278;53.058;9.028;2023-12-20T03:41:54;5.80;99.90
24103;DHT22;12278;53.058;9.028;2023-12-20T03:45:55;5.80;99.90
24103;DHT22;12278;53.058;9.028;2023-12-20T03:49:55;5.80;99.90
24103;DHT22;12278;53.058;9.028;2023-12-20T03:53:56;5.80;99.90
24103;DHT22;12278;53.058;9.028;2023-12-20T03:57:56;5.80;99.90
24103;DHT22;12278;53.058;9.028;2023-12-20T04:01:57;5.80;99.90
24103;DHT22;12278;53.058;9.028;2023-12-20T04:05:58;5.90;99.90
24103;DHT22;12278;53.058;9.028;2023-12-20T04:09:58;5.90;99.90
24103;DHT22;12278;53.058;9.028;2023-12-20T04:13:59;5.90;99.90
24103;DHT22;12278;53.058;9.028;2023-12-20T04:17:59;6.00;99.90
24103;DHT22;12278;53.058;9.028;2023-12-20T04:22:00;5.90;99.90
24103;DHT22;12278;53.058;9.028;2023-12-20T04:26:01;6.00;99.90
24103;DHT22;12278;53.058;9.028;2023-12-20T04:30:01;5.90;99.90
24103;DHT22;12278;53.058;9.028;2023-12-20T04:34:02;5.90;99.90
24103;DHT22;12278;53.058;9.028;2023-12-20T04:38:02;5.90;99.90
24103;DHT22;12278;53.058;9.028;2023-12-20T04:42:03;5.90;99.90
24103;DHT22;12278;53.058;9.028;2023-12-20T04:46:04;6.00;99.90
24103;DHT22;12278;53.058;9.028;2023-12-20T04:50:05;6.00;99.90
24103;DHT22;12278;53.058;9.028;2023-12-20T04:54:06;6.00;99.90
24103;DHT22;12278;53.058;9.028;2023-12-20T04:58:06;6.00;99.90
24103;DHT22;12278;53.058;9.028;2023-12-20T05:02:07;6.00;99.90
24103;DHT22;12278;53.058;9.028;2023-12-20T05:06:08;6.00;99.90
24103;DHT22;12278;53.058;9.028;2023-12-20T05:10:09;6.00;99.90
24103;DHT22;12278;53.058;9.028;2023-12-20T05:14:10;6.10;99.90
24103;DHT22;12278;53.058;9.028;2023-12-20T05:18:11;6.10;99.90
24103;DHT22;12278;53.058;9.028;2023-12-20T05:22:11;6.20;99.90
24103;DHT22;12278;53.058;9.028;2023-12-20T05:26:12;6.20;99.90
24103;DHT22;12278;53.058;9.028;2023-12-20T05:30:13;6.30;99.90
24103;DHT22;12278;53.058;9.028;2023-12-20T05:34:14;6.30;99.90
24103;DHT22;12278;53.058;9.028;2023-12-20T05:38:14;6.30;99.90
24103;DHT22;12278;53.058;9.028;2023-12-20T05:42:15;6.30;99.90
24103;DHT22;12278;53.058;9.028;2023-12-20T05:46:15;6.30;99.90
24103;DHT22;12278;53.058;9.028;2023-12-20T05:50:16;6.30;99.90
24103;DHT22;12278;53.058;9.028;2023-12-20T05:54:17;6.30;99.90
24103;DHT22;12278;53.058;9.028;2023-12-20T05:58:18;6.20;99.90
24103;DHT22;12278;53.058;9.028;2023-12-20T06:02:18;6.20;99.90
24103;DHT22;12278;53.058;9.028;2023-12-20T06:06:19;6.20;99.90
24103;DHT22;12278;53.058;9.028;2023-12-20T06:10:20;6.20;99.90
24103;DHT22;12278;53.058;9.028;2023-12-20T06:14:20;6.30;99.90
24103;DHT22;12278;53.058;9.028;2023-12-20T06:18:21;6.40;99.90
24103;DHT22;12278;53.058;9.028;2023-12-20T06:22:21;6.40;99.90
24103;DHT22;12278;53.058;9.028;2023-12-20T06:26:22;6.30;99.90
24103;DHT22;12278;53.058;9.028;2023-12-20T06:30:22;6.40;99.90
24103;DHT22;12278;53.058;9.028;2023-12-20T06:34:25;6.40;99.90
24103;DHT22;12278;53.058;9.028;2023-12-20T06:38:25;6.40;99.90
24103;DHT22;12278;53.058;9.028;2023-12-20T06:42:26;6.40;99.90
24103;DHT22;12278;53.058;9.028;2023-12-20T06:46:27;6.40;99.90
24103;DHT22;12278;53.058;9.028;2023-12-20T06:50:27;6.40;99.90
24103;DHT22;12278;53.058;9.028;2023-12-20T06:54:28;6.40;99.90
24103;DHT22;12278;53.058;9.028;2023-12-20T06:58:29;6.40;99.90
24103;DHT22;12278;53.058;9.028;2023-12-20T07:02:32;6.40;99.90
24103;DHT22;12278;53.058;9.028;2023-12-20T07:06:33;6.50;99.90
24103;DHT22;12278;53.058;9.028;2023-12-20T07:10:33;6.60;99.90
24103;DHT22;12278;53.058;9.028;2023-12-20T07:14:34;6.60;99.90
24103;DHT22;12278;53.058;9.028;2023-12-20T07:18:35;6.60;99.90
24103;DHT22;12278;53.058;9.028;2023-12-20T07:22:35;6.60;99.90
24103;DHT22;12278;53.058;9.028;2023-12-20T07:26:36;6.60;99.90
24103;DHT22;12278;53.058;9.028;2023-12-20T07:30:39;6.70;99.90
24103;DHT22;12278;53.058;9.028;2023-12-20T07:34:39;6.60;99.90
24103;DHT22;12278;53.058;9.028;2023-12-20T07:38:40;6.60;99.90
24103;DHT22;12278;53.058;9.028;2023-12-20T07:42:42;6.70;99.90
24103;DHT22;12278;53.058;9.028;2023-12-20T07:46:43;6.80;99.90
24103;DHT22;12278;53.058;9.028;2023-12-20T07:50:43;6.80;99.90
24103;DHT22;12278;53.058;9.028;2023-12-20T07:54:45;6.90;99.90
24103;DHT22;12278;53.058;9.028;2023-12-20T07:58:46;6.80;99.90
24103;DHT22;12278;53.058;9.028;2023-12-20T08:02:48;6.90;99.90
24103;DHT22;12278;53.058;9.028;2023-12-20T08:06:49;6.90;99.90
24103;DHT22;12278;53.058;9.028;2023-12-20T08:10:49;6.90;99.90
24103;DHT22;12278;53.058;9.028;2023-12-20T08:14:50;6.90;99.90
24103;DHT22;12278;53.058;9.028;2023-12-20T08:18:51;7.00;99.90
24103;DHT22;12278;53.058;9.028;2023-12-20T08:22:51;7.00;99.90
24103;DHT22;12278;53.058;9.028;2023-12-20T08:26:52;7.00;99.90
24103;DHT22;12278;53.058;9.028;2023-12-20T08:30:53;7.00;99.90
24103;DHT22;12278;53.058;9.028;2023-12-20T08:34:54;7.00;99.90
24103;DHT22;12278;53.058;9.028;2023-12-20T08:38:54;7.00;99.90
24103;DHT22;12278;53.058;9.028;2023-12-20T08:42:55;7.00;99.90
24103;DHT22;12278;53.058;9.028;2023-12-20T08:46:56;7.00;99.90
24103;DHT22;12278;53.058;9.028;2023-12-20T08:50:57;7.00;99.90
24103;DHT22;12278;53.058;9.028;2023-12-20T08:54:58;7.10;99.90
24103;DHT22;12278;53.058;9.028;2023-12-20T08:58:58;7.10;99.90
24103;DHT22;12278;53.058;9.028;2023-12-20T09:02:59;7.10;99.90
24103;DHT22;12278;53.058;9.028;2023-12-20T09:07:00;7.10;99.90
24103;DHT22;12278;53.058;9.028;2023-12-20T09:11:01;7.20;99.90
24103;DHT22;12278;53.058;9.028;2023-12-20T09:15:02;7.30;99.90
24103;DHT22;12278;53.058;9.028;2023-12-20T09:19:03;7.20;99.90
24103;DHT22;12278;53.058;9.028;2023-12-20T09:23:04;7.20;99.90
24103;DHT22;12278;53.058;9.028;2023-12-20T09:27:05;7.20;99.90
24103;DHT22;12278;53.058;9.028;2023-12-20T09:31:06;7.10;99.90
24103;DHT22;12278;53.058;9.028;2023-12-20T09:35:07;7.00;99.90
24103;DHT22;12278;53.058;9.028;2023-12-20T09:39:09;6.90;99.90
24103;DHT22;12278;53.058;9.028;2023-12-20T09:43:15;6.90;99.90
24103;DHT22;12278;53.058;9.028;2023-12-20T09:47:20;6.90;99.90
24103;DHT22;12278;53.058;9.028;2023-12-20T09:51:23;7.00;99.90
24103;DHT22;12278;53.058;9.028;2023-12-20T09:55:26;7.00;99.90
24103;DHT22;12278;53.058;9.028;2023-12-20T09:59:28;7.00;99.90
24103;DHT22;12278;53.058;9.028;2023-12-20T10:03:28;7.00;99.90
24103;DHT22;12278;53.058;9.028;2023-12-20T10:07:30;6.40;99.90
24103;DHT22;12278;53.058;9.028;2023-12-20T10:11:31;6.30;99.90
24103;DHT22;12278;53.058;9.028;2023-12-20T10:15:33;6.20;99.90
24103;DHT22;12278;53.058;9.028;2023-12-20T10:19:33;6.10;99.90
24103;DHT22;12278;53.058;9.028;2023-12-20T10:23:34;6.00;99.90
24103;DHT22;12278;53.058;9.028;2023-12-20T10:27:36;6.00;99.90
24103;DHT22;12278;53.058;9.028;2023-12-20T10:31:36;6.00;99.90
24103;DHT22;12278;53.058;9.028;2023-12-20T10:35:40;6.00;99.90
24103;DHT22;12278;53.058;9.028;2023-12-20T10:39:42;6.00;99.90
24103;DHT22;12278;53.058;9.028;2023-12-20T10:43:44;6.00;99.90
24103;DHT22;12278;53.058;9.028;2023-12-20T10:47:46;6.00;99.90
24103;DHT22;12278;53.058;9.028;2023-12-20T10:51:48;6.10;99.90
24103;DHT22;12278;53.058;9.028;2023-12-20T10:55:51;6.20;99.90
24103;DHT22;12278;53.058;9.028;2023-12-20T10:59:54;6.30;99.90
24103;DHT22;12278;53.058;9.028;2023-12-20T11:03:54;6.40;99.90
24103;DHT22;12278;53.058;9.028;2023-12-20T11:08:01;6.40;99.90
24103;DHT22;12278;53.058;9.028;2023-12-20T11:16:13;7.40;99.90
24103;DHT22;12278;53.058;9.028;2023-12-20T11:20:14;7.90;99.90
24103;DHT22;12278;53.058;9.028;2023-12-20T11:24:15;8.00;99.90
24103;DHT22;12278;53.058;9.028;2023-12-20T11:28:21;8.00;99.90
24103;DHT22;12278;53.058;9.028;2023-12-20T11:36:32;7.90;99.90
24103;DHT22;12278;53.058;9.028;2023-12-20T11:40:34;8.10;99.90
24103;DHT22;12278;53.058;9.028;2023-12-20T11:44:36;8.10;99.90
24103;DHT22;12278;53.058;9.028;2023-12-20T11:48:38;8.50;99.90
24103;DHT22;12278;53.058;9.028;2023-12-20T11:52:40;8.40;99.90
24103;DHT22;12278;53.058;9.028;2023-12-20T11:56:40;8.80;99.90
24103;DHT22;12278;53.058;9.028;2023-12-20T12:00:42;8.90;99.90
24103;DHT22;12278;53.058;9.028;2023-12-20T12:04:43;8.90;99.90
24103;DHT22;12278;53.058;9.028;2023-12-20T12:08:44;8.90;99.90
24103;DHT22;12278;53.058;9.028;2023-12-20T12:12:44;8.90;99.90
24103;DHT22;12278;53.058;9.028;2023-12-20T12:16:45;9.10;99.90
24103;DHT22;12278;53.058;9.028;2023-12-20T12:20:46;8.90;99.90
24103;DHT22;12278;53.058;9.028;2023-12-20T12:24:47;8.90;99.90
24103;DHT22;12278;53.058;9.028;2023-12-20T12:28:48;9.00;99.90
24103;DHT22;12278;53.058;9.028;2023-12-20T12:32:52;9.30;99.90
24103;DHT22;12278;53.058;9.028;2023-12-20T12:36:52;8.50;99.90
24103;DHT22;12278;53.058;9.028;2023-12-20T12:40:54;7.90;99.90
24103;DHT22;12278;53.058;9.028;2023-12-20T12:44:55;7.30;99.90
24103;DHT22;12278;53.058;9.028;2023-12-20T12:48:56;6.90;99.90
24103;DHT22;12278;53.058;9.028;2023-12-20T12:52:57;6.70;99.90
24103;DHT22;12278;53.058;9.028;2023-12-20T12:56:58;6.80;99.90
24103;DHT22;12278;53.058;9.028;2023-12-20T13:00:58;6.90;99.90
24103;DHT22;12278;53.058;9.028;2023-12-20T13:04:59;6.90;99.90
24103;DHT22;12278;53.058;9.028;2023-12-20T13:09:01;7.00;99.90
24103;DHT22;12278;53.058;9.028;2023-12-20T13:13:02;6.90;99.90
24103;DHT22;12278;53.058;9.028;2023-12-20T13:17:03;6.90;99.90
24103;DHT22;12278;53.058;9.028;2023-12-20T13:21:04;7.10;99.90
24103;DHT22;12278;53.058;9.028;2023-12-20T13:45:13;7.40;99.90
24103;DHT22;12278;53.058;9.028;2023-12-20T13:49:14;7.50;99.90
24103;DHT22;12278;53.058;9.028;2023-12-20T13:53:15;7.30;99.90
24103;DHT22;12278;53.058;9.028;2023-12-20T13:57:15;7.10;99.90
24103;DHT22;12278;53.058;9.028;2023-12-20T14:01:16;7.10;99.90
24103;DHT22;12278;53.058;9.028;2023-12-20T14:05:17;6.90;99.90
24103;DHT22;12278;53.058;9.028;2023-12-20T14:09:18;6.90;99.90
24103;DHT22;12278;53.058;9.028;2023-12-20T14:13:18;6.80;99.90
24103;DHT22;12278;53.058;9.028;2023-12-20T14:17:19;6.80;99.90
24103;DHT22;12278;53.058;9.028;2023-12-20T14:21:20;6.80;99.90
24103;DHT22;12278;53.058;9.028;2023-12-20T14:25:21;6.80;99.90
24103;DHT22;12278;53.058;9.028;2023-12-20T14:29:23;6.80;99.90
24103;DHT22;12278;53.058;9.028;2023-12-20T14:33:24;6.80;99.90
24103;DHT22;12278;53.058;9.028;2023-12-20T14:37:24;6.70;99.90
24103;DHT22;12278;53.058;9.028;2023-12-20T14:41:25;6.70;99.90
24103;DHT22;12278;53.058;9.028;2023-12-20T14:45:26;6.70;99.90
24103;DHT22;12278;53.058;9.028;2023-12-20T14:49:27;6.70;99.90
24103;DHT22;12278;53.058;9.028;2023-12-20T14:53:28;6.70;99.90
24103;DHT22;12278;53.058;9.028;2023-12-20T14:57:29;6.60;99.90
24103;DHT22;12278;53.058;9.028;2023-12-20T15:01:30;6.60;99.90
24103;DHT22;12278;53.058;9.028;2023-12-20T15:05:31;6.50;99.90
24103;DHT22;12278;53.058;9.028;2023-12-20T15:09:32;6.50;99.90
24103;DHT22;12278;53.058;9.028;2023-12-20T15:13:32;6.50;99.90
24103;DHT22;12278;53.058;9.028;2023-12-20T15:17:33;6.50;99.90
24103;DHT22;12278;53.058;9.028;2023-12-20T15:21:34;6.50;99.90
24103;DHT22;12278;53.058;9.028;2023-12-20T15:25:40;6.60;99.90
24103;DHT22;12278;53.058;9.028;2023-12-20T15:29:41;6.60;99.90
24103;DHT22;12278;53.058;9.028;2023-12-20T15:33:41;6.60;99.90
24103;DHT22;12278;53.058;9.028;2023-12-20T15:37:42;6.60;99.90
24103;DHT22;12278;53.058;9.028;2023-12-20T15:41:43;6.60;99.90
24103;DHT22;12278;53.058;9.028;2023-12-20T15:45:44;6.60;99.90
24103;DHT22;12278;53.058;9.028;2023-12-20T15:49:46;6.60;99.90
24103;DHT22;12278;53.058;9.028;2023-12-20T15:53:49;6.60;99.90
24103;DHT22;12278;53.058;9.028;2023-12-20T15:57:50;6.60;99.90
24103;DHT22;12278;53.058;9.028;2023-12-20T16:01:51;6.60;99.90
24103;DHT22;12278;53.058;9.028;2023-12-20T16:05:52;6.60;99.90
24103;DHT22;12278;53.058;9.028;2023-12-20T16:09:54;6.50;99.90
24103;DHT22;12278;53.058;9.028;2023-12-20T16:13:54;6.50;99.90
24103;DHT22;12278;53.058;9.028;2023-12-20T16:17:55;6.40;99.90
24103;DHT22;12278;53.058;9.028;2023-12-20T16:21:55;6.40;99.90
24103;DHT22;12278;53.058;9.028;2023-12-20T16:25:57;6.50;99.90
24103;DHT22;12278;53.058;9.028;2023-12-20T16:29:58;6.30;99.90
24103;DHT22;12278;53.058;9.028;2023-12-20T16:33:58;6.30;99.90
24103;DHT22;12278;53.058;9.028;2023-12-20T16:37:59;6.30;99.90
24103;DHT22;12278;53.058;9.028;2023-12-20T16:42:00;6.30;99.90
24103;DHT22;12278;53.058;9.028;2023-12-20T16:46:01;6.20;99.90
24103;DHT22;12278;53.058;9.028;2023-12-20T16:50:01;6.20;99.90
24103;DHT22;12278;53.058;9.028;2023-12-20T16:54:03;6.20;99.90
24103;DHT22;12278;53.058;9.028;2023-12-20T16:58:04;6.20;99.90
24103;DHT22;12278;53.058;9.028;2023-12-20T17:02:05;6.20;99.90
24103;DHT22;12278;53.058;9.028;2023-12-20T17:06:06;6.10;99.90
24103;DHT22;12278;53.058;9.028;2023-12-20T17:10:07;6.10;99.90
24103;DHT22;12278;53.058;9.028;2023-12-20T17:14:08;6.10;99.90
24103;DHT22;12278;53.058;9.028;2023-12-20T17:18:11;6.20;99.90
24103;DHT22;12278;53.058;9.028;2023-12-20T17:22:11;6.20;99.90
24103;DHT22;12278;53.058;9.028;2023-12-20T17:26:13;6.20;99.90
24103;DHT22;12278;53.058;9.028;2023-12-20T17:30:14;6.20;99.90
24103;DHT22;12278;53.058;9.028;2023-12-20T17:34:14;6.20;99.90
24103;DHT22;12278;53.058;9.028;2023-12-20T17:38:15;6.10;99.90
24103;DHT22;12278;53.058;9.028;2023-12-20T17:42:15;6.10;99.90
24103;DHT22;12278;53.058;9.028;2023-12-20T17:46:16;6.10;99.90
24103;DHT22;12278;53.058;9.028;2023-12-20T17:50:17;6.20;99.90
24103;DHT22;12278;53.058;9.028;2023-12-20T17:54:17;6.20;99.90
24103;DHT22;12278;53.058;9.028;2023-12-20T17:58:18;6.20;99.90
24103;DHT22;12278;53.058;9.028;2023-12-20T18:02:18;6.10;99.90
24103;DHT22;12278;53.058;9.028;2023-12-20T18:06:19;6.20;99.90
24103;DHT22;12278;53.058;9.028;2023-12-20T18:10:20;6.10;99.90
24103;DHT22;12278;53.058;9.028;2023-12-20T18:14:21;6.10;99.90
24103;DHT22;12278;53.058;9.028;2023-12-20T18:18:23;6.10;99.90
24103;DHT22;12278;53.058;9.028;2023-12-20T18:22:24;6.10;99.90
24103;DHT22;12278;53.058;9.028;2023-12-20T18:26:24;6.20;99.90
24103;DHT22;12278;53.058;9.028;2023-12-20T18:30:25;6.20;99.90
24103;DHT22;12278;53.058;9.028;2023-12-20T18:34:26;6.20;99.90
24103;DHT22;12278;53.058;9.028;2023-12-20T18:38:26;6.20;99.90
24103;DHT22;12278;53.058;9.028;2023-12-20T18:42:30;6.20;99.90
24103;DHT22;12278;53.058;9.028;2023-12-20T18:46:31;6.10;99.90
24103;DHT22;12278;53.058;9.028;2023-12-20T18:50:32;6.10;99.90
24103;DHT22;12278;53.058;9.028;2023-12-20T18:54:33;6.10;99.90
24103;DHT22;12278;53.058;9.028;2023-12-20T18:58:33;6.10;99.90
24103;DHT22;12278;53.058;9.028;2023-12-20T19:02:34;6.10;99.90
24103;DHT22;12278;53.058;9.028;2023-12-20T19:06:35;6.00;99.90
24103;DHT22;12278;53.058;9.028;2023-12-20T19:10:35;6.00;99.90
24103;DHT22;12278;53.058;9.028;2023-12-20T19:14:36;6.00;99.90
24103;DHT22;12278;53.058;9.028;2023-12-20T19:18:37;6.00;99.90
24103;DHT22;12278;53.058;9.028;2023-12-20T19:50:48;6.30;99.90
24103;DHT22;12278;53.058;9.028;2023-12-20T19:54:51;6.20;99.90
24103;DHT22;12278;53.058;9.028;2023-12-20T19:58:52;6.20;99.90
24103;DHT22;12278;53.058;9.028;2023-12-20T20:02:52;6.20;99.90
24103;DHT22;12278;53.058;9.028;2023-12-20T20:06:53;6.30;99.90
24103;DHT22;12278;53.058;9.028;2023-12-20T20:10:53;6.20;99.90
24103;DHT22;12278;53.058;9.028;2023-12-20T20:14:54;6.20;99.90
24103;DHT22;12278;53.058;9.028;2023-12-20T20:18:55;6.30;99.90
24103;DHT22;12278;53.058;9.028;2023-12-20T20:22:55;6.30;99.90
24103;DHT22;12278;53.058;9.028;2023-12-20T20:26:56;6.40;99.90
24103;DHT22;12278;53.058;9.028;2023-12-20T20:30:56;6.40;99.90
24103;DHT22;12278;53.058;9.028;2023-12-20T20:34:57;6.40;99.90
24103;DHT22;12278;53.058;9.028;2023-12-20T20:38:58;6.50;99.90
24103;DHT22;12278;53.058;9.028;2023-12-20T20:42:59;6.60;99.90
24103;DHT22;12278;53.058;9.028;2023-12-20T20:46:59;6.70;99.90
24103;DHT22;12278;53.058;9.028;2023-12-20T20:51:01;6.80;99.90
24103;DHT22;12278;53.058;9.028;2023-12-20T20:55:02;6.90;99.90
24103;DHT22;12278;53.058;9.028;2023-12-20T20:59:03;7.00;99.90
24103;DHT22;12278;53.058;9.028;2023-12-20T21:03:04;7.10;99.90
24103;DHT22;12278;53.058;9.028;2023-12-20T21:07:05;7.10;99.90
24103;DHT22;12278;53.058;9.028;2023-12-20T21:11:05;7.20;99.90
24103;DHT22;12278;53.058;9.028;2023-12-20T21:15:06;7.30;99.90
24103;DHT22;12278;53.058;9.028;2023-12-20T21:19:07;7.40;99.90
24103;DHT22;12278;53.058;9.028;2023-12-20T21:23:08;7.50;99.90
24103;DHT22;12278;53.058;9.028;2023-12-20T21:27:11;7.50;99.90
24103;DHT22;12278;53.058;9.028;2023-12-20T21:31:11;7.50;99.90
24103;DHT22;12278;53.058;9.028;2023-12-20T21:35:13;7.70;99.90
24103;DHT22;12278;53.058;9.028;2023-12-20T21:39:14;7.70;99.90
24103;DHT22;12278;53.058;9.028;2023-12-20T21:43:14;7.70;99.90
24103;DHT22;12278;53.058;9.028;2023-12-20T21:47:15;7.80;99.90
24103;DHT22;12278;53.058;9.028;2023-12-20T21:51:16;7.80;99.90
24103;DHT22;12278;53.058;9.028;2023-12-20T21:55:17;7.80;99.90
24103;DHT22;12278;53.058;9.028;2023-12-20T21:59:18;7.90;99.90
24103;DHT22;12278;53.058;9.028;2023-12-20T22:03:21;7.90;99.90
24103;DHT22;12278;53.058;9.028;2023-12-20T22:07:21;7.90;99.90
24103;DHT22;12278;53.058;9.028;2023-12-20T22:11:22;8.00;99.90
24103;DHT22;12278;53.058;9.028;2023-12-20T22:15:23;8.00;99.90
24103;DHT22;12278;53.058;9.028;2023-12-20T22:19:24;8.00;99.90
24103;DHT22;12278;53.058;9.028;2023-12-20T22:23:24;8.10;99.90
24103;DHT22;12278;53.058;9.028;2023-12-20T22:27:25;8.10;99.90
24103;DHT22;12278;53.058;9.028;2023-12-20T22:31:26;8.20;99.90
24103;DHT22;12278;53.058;9.028;2023-12-20T22:35:26;8.20;99.90
24103;DHT22;12278;53.058;9.028;2023-12-20T22:39:27;8.20;99.90
24103;DHT22;12278;53.058;9.028;2023-12-20T22:43:27;8.30;99.90
24103;DHT22;12278;53.058;9.028;2023-12-20T22:47:31;8.30;99.90
24103;DHT22;12278;53.058;9.028;2023-12-20T22:51:32;8.30;99.90
24103;DHT22;12278;53.058;9.028;2023-12-20T22:55:34;8.30;99.90
24103;DHT22;12278;53.058;9.028;2023-12-20T22:59:34;8.30;99.90
24103;DHT22;12278;53.058;9.028;2023-12-20T23:03:35;8.40;99.90
24103;DHT22;12278;53.058;9.028;2023-12-20T23:07:37;8.40;99.90
24103;DHT22;12278;53.058;9.028;2023-12-20T23:11:38;8.40;99.90
24103;DHT22;12278;53.058;9.028;2023-12-20T23:15:39;8.50;99.90
24103;DHT22;12278;53.058;9.028;2023-12-20T23:19:39;8.50;99.90
24103;DHT22;12278;53.058;9.028;2023-12-20T23:23:41;8.50;99.90
24103;DHT22;12278;53.058;9.028;2023-12-20T23:27:42;8.50;99.90
24103;DHT22;12278;53.058;9.028;2023-12-20T23:31:46;8.50;99.90
24103;DHT22;12278;53.058;9.028;2023-12-20T23:35:47;8.50;99.90
24103;DHT22;12278;53.058;9.028;2023-12-20T23:39:47;8.50;99.90
24103;DHT22;12278;53.058;9.028;2023-12-20T23:43:48;8.60;99.90
24103;DHT22;12278;53.058;9.028;2023-12-20T23:47:48;8.60;99.90
24103;DHT22;12278;53.058;9.028;2023-12-20T23:51:52;8.60;99.90
24103;DHT22;12278;53.058;9.028;2023-12-20T23:55:53;8.60;99.90
24103;DHT22;12278;53.058;9.028;2023-12-20T23:59:53;8.70;99.90
